By P J Swatton

ISBN-10: 0632059397

ISBN-13: 9780632059393

A part of a sequence of teaching manuals for college students taking advertisement pilot and air delivery pilot licence examinations, this covers all features when it comes to plotting and flight making plans - type of the earth, navigational making plans strategies and the rules and perform of flight making plans. it's been thoroughly revised to take account of the hot Joint Aviation gurus of Europe syllabus for flight group licensing

Show description

Read Online or Download Flight planning PDF

Similar personal finance books

Kris Davis's Financing College: How Much You'll Really Have to Pay and PDF

Davis's thoughts are moral, sensible, and make monetary feel - no matter if one is saving for a preschooler or scrambling to pay institution for subsequent year's freshman. Checklists & worksheets.

Read e-book online 202 Ways to Supplement Your Retirement Income PDF

The recent Encyclopedias for Supplemental source of revenue jam-packed with 202 confirmed money-making possibilities, every one booklet during this renowned sequence outlines a large number of how you could complement your source of revenue. the present pattern of energetic retirement is becoming. This ebook indicates you what you are able to do in retirement to make more cash.

Download PDF by Ronald T. Wilcox: Whatever Happened to Thrift?: Why Americans Don't Save and

It truly is no mystery that americans shop little or no: each financial index confirms as a lot. yet to unravel the true secret, we needs to ask the questions, “Why? ” “What are the results on our financial system? ” and “What might be performed approximately it? ” In this completely researched and thought-provoking publication, Ronald T. Wilcox sincerely describes not just how the “savings predicament” adversely impacts own life over the longer term yet also how it may well undermine our nationwide wealth and traditional of residing.

Extra info for Flight planning

Sample text

Htm. , no cloud below 5000 ft above aerodrome elevation or MSA, whichever is the higher, and no cumulonimbus. NSW No weather of significance to aviation. NOSIG No significant change to the conditions is expected in the period stated. SKC Sky clear. No cloud at any height. vp Friday, September 06, 2002 12:28:21 PM Color profile: Disabled Composite Default screen Meteorology Revision 35 Example METARs Europe for 30 October 2001 EGHI 301550Z 20015KT 170V240 8000 FEW009 SCT011 BKN018 16/14 Q1013= EGPD 301550Z 21016KT 9999 FEW017 SCT044 BKN 080 14/11 Q0991 TEMPO 7000 BKN015= EGPH 301550Z 23018KT 9999 -RA FEW022 BKN028 14/12 Q0994 REDZ= EDDB 301550Z 22009KT CAVOK 15/11 Q1014 NOSIG= LOWG 301550Z VRB01KT 3200 BR MIFG FEW050 SCT140 BKN290 12/12 Q1024 NOSIG= LIPZ 301550Z 00000KT 1500 R04/P1500N BR SCT003 BKN015 14/12 Q1027= EPWA 301550Z 27008MPS 250V350 9999 BKN030 13/10 Q1008 TEMPO 28009G14MPS= ULLI 301550Z 11005MPS 4400 -RA OVC011 05/03 Q0990 NOSIG RMK ALL RWYS CLEAR and DRY 51–100 PCT LESS THAN 1 MM BA72= The METAR examples are reproduced by kind permission of the Met Office © Crown copyright.

EGPD • W/V: 210°(T)/16 kts. • Visibility: 10 km or more. • Cloud: 1–2 oktas base 1700 ft above aerodrome elevation. 3–4 oktas base 4400 ft above aerodrome elevation. 5–7 oktas base 8000 ft above aerodrome elevation. • Temperature/Dew Point: 14°C/11°C. • QNH: 991 hPa. • TREND: For less than a total of one hour during the next two hours, the visibility will be 7000 m and the cloud will be 5–7 oktas at 1500 ft above aerodrome elevation. vp Friday, September 06, 2002 11:53:50 AM Color profile: Disabled Composite Default screen 36 Ground Studies for Pilots: Flight Planning EGPH W/V: 230°(T)/18 kts.

LOWG • • • • W/V: Variable/01 kts. Visibility: 3200 m. Weather: Mist and shallow fog. Cloud: 1–2 oktas base 5000 ft above aerodrome elevation. 3–4 oktas base 14 000 ft above aerodrome elevation. 5–7 oktas base 29 000 ft above aerodrome elevation. • Temperature/Dew Point: 12°C/12°C. • QNH: 1024 hPa. • TREND: No significant change expected in the next two hours. LIPZ • • • • • W/V: Calm. Visibility: 1500 m. RVR: Runway 04 RVR greater than 1500 m not changing. Weather: Mist. Cloud: 3–4 oktas base 300 ft above aerodrome elevation.

Download PDF sample

Flight planning by P J Swatton


by Brian
4.1

Rated 4.94 of 5 – based on 46 votes